Terminal Aerodrome Forecast
Issued by NWS Charleston, WV

Current Version | Previous Version | Text Only | Print | Product List | Glossary Off
Versions: 1 2 3 4 5 6 7 8 9 10 11 12 13 14 15 16 17 18 19 20 21 22 23 24 25

000
FTUS41 KRLX 231336 AAA
TAFEKN
TAF AMD
KEKN 231336Z 2314/2412 22009KT P6SM VCSH BKN025 OVC035
     FM231600 22010G20KT P6SM VCTS BKN025 OVC035CB
     FM232100 22010KT 3SM SHRA VCTS BKN020 OVC040CB
     FM240600 24010KT 4SM -RA BR OVC007=

USA.gov is the U.S. government's official web portal to all federal, state and local government web resources and services.